메인 페이지
METAR-TAF:

METAR-TAF

공항 :

Kasane, 보츠와나

위도: 17-49S, 경도: 025-09E, 고도: 968m

현재 날씨관측

예보는 1 시간 31분 전, 18:00시(UTC)에 발표되었습니다.
동남동6kt
온도 28°C
습도 23%
기압 1013 hPa
시정 10km 이상
1500m 미만 상공 구름 및 적란운 없음

METAR: FBKE 251800Z 12006KT CAVOK 28/05 Q1013

시각: 21:31 (19:31 UTC)

예보

예보는 7 시간 31분 전, 12:00시(UTC)에 발표되었습니다.
예보 대상 시간: 25일 15시부터 25일 24시까지 (UTC)
남동6kt
시정 10km 이상
1500m 미만 상공 구름 및 적란운 없음

TAF: FBKE 251200Z 2515/2524 13006KT CAVOK

4,000개 이상의 공항 관측 자료 및 예보 (METAR 및 TAF 보고).

지도상에서 검색 가능한 기상관측소가 노란 점과 빨간 점으로 표시되어 있습니다.

기상관측소 명을 보려면 표시 위로 마우스를 이동하세요.

날씨 관측과 예보를 보려면 클릭하세요.

지도 변경 : 확대하려면 엑스 표시가 있는 녹색 버튼, 축소하려면 빼기 표시가 있는 녹색 버튼, 다음 페이지의 지도를 보려면 녹색 화살표를 클릭하세요.


METAR-TAF: